Hauptseite
METAR-TAF:

METAR-TAF

Flughäfen :

Perugia, Italien

Flughafen Perugia

Breite: 43-05N, Länge: 012-30E, Höhe: 208 m

Beobachtung

Neuester Wetterbericht von vor 32 Minuten, um 10:50 UTC
Wind 1 kt aus unterschiedlichen Richtungen
Temperatur 15°C
Luftfeuchtigkeit 67%
Luftdruck 1022 hPa
Sichtweite: 9000 m
Aufgelockert bewölkt in der Höhe von 4000 ft

METAR: LIRZ 231050Z VRB01KT 9000 SCT040 15/09 Q1022

Zeit: 12:22 (11:22 UTC)

Prognose

Neuester Wetterbericht von vor 6 Stunden und 22 Minuten, um 05:00 UTC
Gültige Prognose vom 23 um 06 UTC bis 24 um 06 UTC
Wind 5 kt aus unterschiedlichen Richtungen
Sichtweite: 4000 m
Aufgelockert bewölkt in der Höhe von 2000 ft
feuchter Dunst
Übergehend zu
vom 23 um 07 UTC bis 23 um 09 UTC
Sichtweite 10 km oder mehr

TAF: LIRZ 230500Z 2306/2406 VRB05KT 4000 BR SCT020 BECMG 2307/2309 9999

Wetterbeobachtungen und Prognosen von mehr als 4000 Flughäfen (METAR und TAF Bericht).

Die verfügbaren Stationen werden durch gelbe und rote Markierungen auf der Karte dargestellt.

Führen Sie die Maus auf sie, um den Namen der Station zu sehen.

Darauf klicken, um die Beobachtung von Wetterbeobachtungen und Prognosen zu sehen.

Um die Karte zu ändern : klicken Sie auf den grünen Tasten mit einem schwarzen Kreuz Zum Vergrößern, auf den grünen Button mit einem Gedankenstrich zu verkleinern, oder auf die grünen Pfeile für benachbarte Karten.


METAR-TAF: